createdAt,value
2022-11-24T00:00:22.176Z,14.00
2022-11-24T00:02:53.280Z,13.90
2022-11-24T00:05:24.186Z,13.90
2022-11-24T00:07:55.113Z,14.00
2022-11-24T00:10:26.008Z,14.00
2022-11-24T00:12:56.883Z,13.80
2022-11-24T00:15:27.871Z,13.70
2022-11-24T00:17:58.748Z,14.00
2022-11-24T00:20:29.581Z,13.90
2022-11-24T00:23:01.529Z,13.60
2022-11-24T00:25:32.537Z,13.70
2022-11-24T00:28:03.464Z,13.60
2022-11-24T00:30:34.850Z,13.70
2022-11-24T00:33:05.787Z,13.70
2022-11-24T00:35:36.628Z,13.70
2022-11-24T00:38:07.533Z,14.00
2022-11-24T00:40:38.378Z,14.00
2022-11-24T00:43:09.299Z,13.70
2022-11-24T00:45:40.334Z,13.70
2022-11-24T00:48:11.342Z,13.80
2022-11-24T00:50:42.429Z,13.70
2022-11-24T00:53:13.280Z,13.60
2022-11-24T00:55:50.164Z,13.50
2022-11-24T00:58:21.983Z,13.50
2022-11-24T01:00:53.497Z,13.60
2022-11-24T01:03:24.383Z,13.60
2022-11-24T01:05:55.243Z,13.70
2022-11-24T01:08:26.132Z,13.70
2022-11-24T01:11:19.738Z,13.70
2022-11-24T01:13:58.831Z,13.80
2022-11-24T01:16:34.968Z,13.90
2022-11-24T01:19:05.836Z,13.70
2022-11-24T01:21:36.715Z,13.90
2022-11-24T01:24:07.775Z,14.00
2022-11-24T01:26:38.861Z,14.10
2022-11-24T01:29:11.846Z,13.90
2022-11-24T01:31:42.682Z,13.80
2022-11-24T01:34:13.737Z,13.90
2022-11-24T01:36:44.717Z,13.90
2022-11-24T01:39:15.666Z,14.20
2022-11-24T01:41:46.615Z,14.00
2022-11-24T01:44:27.633Z,14.00
2022-11-24T01:47:12.631Z,13.10
2022-11-24T01:49:49.356Z,14.00
2022-11-24T01:52:29.297Z,14.00
2022-11-24T01:55:06.668Z,14.20
2022-11-24T01:57:45.531Z,14.30
2022-11-24T02:00:18.771Z,14.10
2022-11-24T02:02:50.018Z,14.10
2022-11-24T02:05:24.688Z,13.90
2022-11-24T02:07:59.316Z,14.00
2022-11-24T02:10:30.427Z,14.30
2022-11-24T02:13:01.395Z,13.90
2022-11-24T02:15:32.854Z,13.90
2022-11-24T02:18:03.919Z,14.00
2022-11-24T02:20:35.191Z,14.00
2022-11-24T02:23:32.156Z,13.90
2022-11-24T02:26:15.955Z,13.90
2022-11-24T02:28:47.240Z,13.70
2022-11-24T02:31:18.521Z,13.90
2022-11-24T02:33:50.955Z,13.90
2022-11-24T02:36:21.846Z,13.70
2022-11-24T02:38:52.725Z,13.60
2022-11-24T02:41:25.816Z,13.80
2022-11-24T02:44:00.342Z,13.60
2022-11-24T02:46:31.299Z,13.50
2022-11-24T02:49:02.233Z,13.40
2022-11-24T02:51:34.457Z,13.40
2022-11-24T02:54:05.440Z,13.30
2022-11-24T02:56:36.306Z,13.40
2022-11-24T02:59:07.197Z,13.30
2022-11-24T03:01:38.086Z,13.30
2022-11-24T03:04:09.099Z,13.20
2022-11-24T03:06:40.503Z,13.60
2022-11-24T03:09:11.739Z,13.60
2022-11-24T03:11:42.639Z,13.60
2022-11-24T03:14:13.506Z,13.50
2022-11-24T03:16:44.371Z,13.00
2022-11-24T03:19:15.241Z,13.30
2022-11-24T03:21:46.075Z,13.20
2022-11-24T03:24:17.092Z,13.30
2022-11-24T03:26:47.936Z,13.10
2022-11-24T03:29:18.944Z,13.00
2022-11-24T03:31:49.922Z,13.20
2022-11-24T03:34:20.788Z,13.10
2022-11-24T03:36:54.382Z,13.00
2022-11-24T03:39:25.345Z,12.90
2022-11-24T03:41:56.208Z,13.00
2022-11-24T03:44:27.080Z,13.00
2022-11-24T03:46:57.949Z,13.00
2022-11-24T03:49:29.262Z,13.00
2022-11-24T03:52:05.142Z,13.10
2022-11-24T03:54:38.596Z,12.90
2022-11-24T03:57:09.480Z,13.00
2022-11-24T03:59:40.537Z,12.90
2022-11-24T04:02:11.534Z,12.90
2022-11-24T04:04:47.052Z,12.90
2022-11-24T04:07:20.461Z,12.80
2022-11-24T04:09:51.335Z,12.90
2022-11-24T04:12:40.615Z,12.90
2022-11-24T04:15:17.848Z,12.70
2022-11-24T04:17:50.517Z,12.90
2022-11-24T04:20:22.084Z,13.00
2022-11-24T04:22:53.032Z,13.10
2022-11-24T04:25:23.897Z,13.10
2022-11-24T04:27:58.018Z,12.70
2022-11-24T04:30:29.562Z,13.20
2022-11-24T04:33:00.456Z,13.30
2022-11-24T04:35:31.353Z,13.20
2022-11-24T04:38:03.196Z,13.10
2022-11-24T04:40:34.320Z,13.30
2022-11-24T04:43:05.308Z,13.20
2022-11-24T04:45:36.212Z,13.40
2022-11-24T04:48:07.164Z,13.30
2022-11-24T04:50:39.112Z,13.30
2022-11-24T04:53:11.480Z,13.20
2022-11-24T04:55:42.420Z,13.30
2022-11-24T04:58:13.503Z,12.90
2022-11-24T05:00:44.336Z,13.30
2022-11-24T05:03:15.214Z,13.20
2022-11-24T05:05:46.057Z,13.10
2022-11-24T05:08:16.991Z,13.10
2022-11-24T05:10:47.809Z,13.00
2022-11-24T05:13:18.670Z,12.80
2022-11-24T05:15:49.511Z,12.90
2022-11-24T05:18:20.395Z,12.90
2022-11-24T05:20:51.287Z,14.40
2022-11-24T05:23:22.148Z,14.80
2022-11-24T05:25:53.396Z,14.10
2022-11-24T05:28:24.253Z,13.80
2022-11-24T05:30:59.160Z,13.70
2022-11-24T05:33:33.284Z,13.20
2022-11-24T05:36:06.519Z,13.20
2022-11-24T05:38:37.379Z,13.20
2022-11-24T05:41:08.972Z,13.30
2022-11-24T05:43:39.864Z,13.00
2022-11-24T05:46:10.687Z,13.20
2022-11-24T05:48:41.527Z,13.00
2022-11-24T05:51:12.462Z,13.00
2022-11-24T05:53:43.360Z,13.20
2022-11-24T05:56:14.279Z,13.20
2022-11-24T05:58:45.189Z,13.10
2022-11-24T06:01:16.065Z,13.00
2022-11-24T06:03:46.941Z,13.30
2022-11-24T06:06:18.224Z,13.00
2022-11-24T06:08:49.120Z,13.10
2022-11-24T06:11:20.021Z,12.80
2022-11-24T06:13:50.938Z,12.90
2022-11-24T06:16:22.063Z,13.10
2022-11-24T06:18:52.970Z,13.30
2022-11-24T06:21:24.096Z,13.40
2022-11-24T06:23:54.948Z,13.50
2022-11-24T06:26:25.814Z,13.60
2022-11-24T06:28:56.718Z,13.00
2022-11-24T06:31:27.644Z,13.40
2022-11-24T06:33:59.512Z,13.20
2022-11-24T06:36:30.393Z,13.10
2022-11-24T06:39:04.913Z,13.30
2022-11-24T06:41:35.754Z,14.70
2022-11-24T06:44:06.763Z,14.40
2022-11-24T06:46:37.599Z,14.20
2022-11-24T06:49:08.705Z,14.00
2022-11-24T06:51:39.737Z,14.10
2022-11-24T06:54:17.819Z,14.10
2022-11-24T06:56:48.724Z,14.10
2022-11-24T06:59:20.956Z,14.10
2022-11-24T07:01:52.337Z,13.90
2022-11-24T07:04:23.268Z,13.90
2022-11-24T07:06:54.133Z,13.80
2022-11-24T07:09:24.975Z,13.80
2022-11-24T07:11:56.761Z,14.20
2022-11-24T07:14:27.601Z,13.20
2022-11-24T07:16:58.520Z,13.80
2022-11-24T07:19:29.474Z,13.70
2022-11-24T07:22:09.312Z,13.60
2022-11-24T07:24:40.177Z,14.00
2022-11-24T07:27:13.828Z,14.10
2022-11-24T07:29:44.697Z,14.00
2022-11-24T07:32:16.140Z,13.90
2022-11-24T07:34:47.112Z,13.30
2022-11-24T07:37:17.938Z,13.20
2022-11-24T07:39:48.797Z,14.00
2022-11-24T07:42:19.633Z,13.90
2022-11-24T07:44:50.501Z,13.30
2022-11-24T07:47:21.338Z,13.70
2022-11-24T07:49:52.211Z,13.60
2022-11-24T07:52:26.575Z,13.70
2022-11-24T07:54:57.441Z,14.00
2022-11-24T07:57:30.916Z,13.80
2022-11-24T08:00:02.219Z,13.50
2022-11-24T08:02:33.709Z,13.70
2022-11-24T08:05:06.185Z,13.70
2022-11-24T08:07:37.165Z,13.80
2022-11-24T08:10:08.789Z,13.80
2022-11-24T08:12:40.978Z,14.10
2022-11-24T08:15:12.108Z,13.60
2022-11-24T08:17:43.018Z,13.10
2022-11-24T08:20:13.915Z,13.50
2022-11-24T08:22:44.889Z,13.30
2022-11-24T08:25:17.696Z,13.20
2022-11-24T08:27:48.521Z,13.30
2022-11-24T08:30:20.075Z,13.70
2022-11-24T08:32:50.909Z,13.90
2022-11-24T08:35:22.020Z,13.60
2022-11-24T08:37:53.086Z,13.40
2022-11-24T08:40:24.136Z,13.50
2022-11-24T08:43:01.547Z,13.70
2022-11-24T08:45:35.482Z,13.30
2022-11-24T08:48:10.682Z,13.90
2022-11-24T08:50:41.627Z,14.10
2022-11-24T08:53:12.465Z,13.60
2022-11-24T08:55:43.299Z,13.30
2022-11-24T08:58:14.693Z,13.60
2022-11-24T09:00:45.591Z,13.70
2022-11-24T09:03:16.533Z,12.90
2022-11-24T09:05:52.307Z,13.30
2022-11-24T09:08:23.738Z,13.70
2022-11-24T09:10:59.715Z,13.50
2022-11-24T09:13:31.142Z,13.90
2022-11-24T09:16:14.269Z,13.70
2022-11-24T09:18:45.641Z,13.70
2022-11-24T09:21:19.781Z,14.30
2022-11-24T09:23:53.328Z,14.50
2022-11-24T09:26:33.487Z,14.30
2022-11-24T09:29:08.058Z,14.00
2022-11-24T09:31:39.505Z,13.40
2022-11-24T09:34:15.502Z,14.20
2022-11-24T09:36:46.403Z,13.90
2022-11-24T09:39:17.388Z,13.80
2022-11-24T09:42:04.290Z,14.00
2022-11-24T09:45:30.382Z,14.10
2022-11-24T09:48:22.680Z,13.90
2022-11-24T09:50:54.470Z,14.60
2022-11-24T09:53:34.654Z,14.20
2022-11-24T09:56:23.220Z,13.80
2022-11-24T09:58:59.439Z,13.70
2022-11-24T10:01:32.816Z,14.30
2022-11-24T10:04:23.069Z,14.50
2022-11-24T10:07:18.609Z,14.20
2022-11-24T10:10:04.519Z,14.10
2022-11-24T10:13:25.404Z,13.70
2022-11-24T10:16:31.416Z,14.40
2022-11-24T10:19:21.971Z,14.60
2022-11-24T10:22:07.887Z,14.30
2022-11-24T10:25:06.661Z,13.90
2022-11-24T10:27:43.845Z,14.40
2022-11-24T10:30:20.294Z,14.70
2022-11-24T10:32:58.731Z,15.00
2022-11-24T10:35:45.891Z,14.70
2022-11-24T10:38:35.314Z,14.90
2022-11-24T10:41:20.577Z,15.40
2022-11-24T10:43:52.500Z,15.70
2022-11-24T10:46:27.306Z,15.40
2022-11-24T10:49:04.927Z,15.20
2022-11-24T10:52:13.998Z,14.60
2022-11-24T10:55:00.268Z,14.90
2022-11-24T10:57:37.554Z,15.40
2022-11-24T11:00:20.550Z,15.70
2022-11-24T11:03:21.855Z,15.10
2022-11-24T11:06:13.285Z,15.30
2022-11-24T11:08:44.176Z,15.20
2022-11-24T11:11:30.332Z,15.50
2022-11-24T11:14:07.706Z,14.90
2022-11-24T11:16:52.640Z,14.80
2022-11-24T11:19:51.395Z,14.80
2022-11-24T11:22:32.607Z,14.70
2022-11-24T11:25:12.456Z,14.70
2022-11-24T11:27:43.645Z,14.70
2022-11-24T11:36:15.925Z,15.30
2022-11-24T11:38:48.148Z,15.70
2022-11-24T11:41:41.418Z,15.70
2022-11-24T11:44:57.816Z,15.70
2022-11-24T11:47:38.519Z,15.10
2022-11-24T11:50:15.978Z,15.30
2022-11-24T11:52:55.743Z,15.80
2022-11-24T11:55:57.230Z,15.80
2022-11-24T11:59:02.401Z,16.90
2022-11-24T12:02:01.976Z,17.10
2022-11-24T12:04:52.641Z,17.80
2022-11-24T12:07:26.108Z,17.30
2022-11-24T12:10:21.974Z,17.10
2022-11-24T12:13:30.019Z,16.60
2022-11-24T12:16:22.047Z,16.50
2022-11-24T12:19:16.424Z,15.60
2022-11-24T12:21:52.970Z,15.70
2022-11-24T12:24:38.847Z,15.80
2022-11-24T12:27:28.892Z,16.20
2022-11-24T12:30:17.508Z,15.80
2022-11-24T12:33:13.175Z,15.80
2022-11-24T12:35:52.695Z,15.70
2022-11-24T12:38:39.958Z,15.80
2022-11-24T12:41:53.861Z,16.00
2022-11-24T12:45:09.820Z,15.70
2022-11-24T12:48:03.761Z,15.50
2022-11-24T12:50:39.817Z,15.40
2022-11-24T12:53:44.951Z,15.20
2022-11-24T12:56:20.830Z,15.30
2022-11-24T12:59:16.940Z,15.40
2022-11-24T13:02:24.796Z,15.30
2022-11-24T13:05:21.046Z,15.70
2022-11-24T13:08:01.847Z,16.40
2022-11-24T13:14:01.301Z,17.60
2022-11-24T13:16:38.640Z,17.80
2022-11-24T13:19:21.863Z,17.40
2022-11-24T13:22:07.308Z,18.30
2022-11-24T13:24:40.606Z,18.40
2022-11-24T13:27:17.115Z,18.30
2022-11-24T13:29:50.914Z,17.60
2022-11-24T13:32:21.696Z,17.40
2022-11-24T13:34:55.192Z,17.50
2022-11-24T13:37:32.103Z,16.80
2022-11-24T13:40:13.231Z,17.10
2022-11-24T13:43:10.533Z,16.70
2022-11-24T13:45:49.262Z,16.60
2022-11-24T13:48:20.518Z,16.70
2022-11-24T13:50:53.109Z,16.80
2022-11-24T13:53:45.766Z,16.80
2022-11-24T13:56:16.546Z,17.10
2022-11-24T13:58:54.758Z,17.00
2022-11-24T14:01:28.639Z,16.80
2022-11-24T14:07:08.349Z,16.80
2022-11-24T14:09:47.401Z,16.80
2022-11-24T14:12:21.348Z,17.40
2022-11-24T14:14:57.563Z,17.30
2022-11-24T14:17:28.933Z,17.40
2022-11-24T14:19:59.834Z,17.10
2022-11-24T14:22:41.339Z,16.30
2022-11-24T14:25:31.551Z,16.10
2022-11-24T14:28:02.695Z,16.10
2022-11-24T14:30:33.577Z,15.80
2022-11-24T14:33:09.831Z,16.40
2022-11-24T14:35:47.105Z,16.60
2022-11-24T14:38:18.012Z,16.10
2022-11-24T14:40:52.566Z,16.40
2022-11-24T14:43:31.526Z,16.50
2022-11-24T14:46:09.977Z,16.20
2022-11-24T14:48:50.633Z,16.80
2022-11-24T14:51:25.707Z,16.90
2022-11-24T14:54:01.270Z,17.10
2022-11-24T14:56:38.015Z,17.20
2022-11-24T14:59:24.362Z,17.10
2022-11-24T15:01:57.014Z,17.40
2022-11-24T15:05:02.060Z,17.10
2022-11-24T15:07:29.376Z,17.30
2022-11-24T15:10:03.621Z,17.50
2022-11-24T15:12:42.916Z,17.40
2022-11-24T15:15:13.757Z,17.60
2022-11-24T15:18:00.635Z,17.50
2022-11-24T15:20:42.391Z,17.20
2022-11-24T15:23:27.780Z,16.90
2022-11-24T15:26:18.588Z,16.30
2022-11-24T15:28:49.483Z,16.80
2022-11-24T15:31:20.434Z,16.70
2022-11-24T15:33:51.311Z,17.00
2022-11-24T15:36:22.234Z,16.90
2022-11-24T15:38:53.178Z,16.40
2022-11-24T15:41:32.835Z,16.30
2022-11-24T15:44:04.049Z,16.00
2022-11-24T15:46:38.517Z,16.50
2022-11-24T15:49:09.542Z,16.80
2022-11-24T15:51:44.599Z,16.30
2022-11-24T15:54:17.332Z,16.40
2022-11-24T15:56:48.304Z,16.00
2022-11-24T15:59:21.286Z,16.40
2022-11-24T16:01:52.557Z,16.70
2022-11-24T16:04:23.486Z,16.60
2022-11-24T16:06:54.349Z,16.90
2022-11-24T16:09:25.249Z,17.00
2022-11-24T16:11:56.081Z,16.50
2022-11-24T16:14:27.247Z,16.40
2022-11-24T16:16:58.178Z,16.00
2022-11-24T16:19:29.286Z,15.80
2022-11-24T16:22:00.278Z,15.70
2022-11-24T16:24:31.133Z,16.00
2022-11-24T16:27:01.978Z,16.60
2022-11-24T16:29:38.065Z,16.10
2022-11-24T16:32:09.327Z,15.90
2022-11-24T16:34:40.242Z,15.60
2022-11-24T16:37:11.122Z,15.20
2022-11-24T16:39:48.410Z,15.10
2022-11-24T16:42:20.847Z,15.00
2022-11-24T16:44:52.389Z,14.80
2022-11-24T16:47:23.381Z,14.60
2022-11-24T16:49:54.308Z,14.50
2022-11-24T16:52:25.943Z,14.40
2022-11-24T16:54:57.100Z,14.10
2022-11-24T16:57:30.484Z,14.00
2022-11-24T17:00:01.551Z,14.10
2022-11-24T17:02:33.950Z,13.90
2022-11-24T17:05:05.473Z,14.00
2022-11-24T17:07:36.442Z,13.80
2022-11-24T17:10:08.172Z,13.80
2022-11-24T17:12:40.842Z,13.70
2022-11-24T17:18:23.548Z,13.60
2022-11-24T17:21:01.129Z,13.60
2022-11-24T17:23:35.457Z,13.50
2022-11-24T17:26:11.299Z,13.50
2022-11-24T17:28:42.974Z,13.60
2022-11-24T17:31:27.818Z,14.00
2022-11-24T17:34:00.342Z,15.50
2022-11-24T17:36:33.718Z,16.00
2022-11-24T17:39:07.204Z,16.50
2022-11-24T17:41:38.508Z,16.80
2022-11-24T17:44:10.722Z,15.80
2022-11-24T17:46:41.781Z,15.30
2022-11-24T17:49:13.309Z,15.00
2022-11-24T17:51:46.282Z,14.70
2022-11-24T17:57:09.791Z,14.40
2022-11-24T17:59:40.741Z,14.30
2022-11-24T18:02:11.755Z,14.20
2022-11-24T18:04:42.694Z,14.20
2022-11-24T18:07:13.604Z,14.20
2022-11-24T18:09:44.551Z,13.90
2022-11-24T18:12:15.466Z,13.90
2022-11-24T18:14:46.396Z,13.60
2022-11-24T18:17:17.289Z,13.60
2022-11-24T18:19:48.150Z,13.80
2022-11-24T18:22:19.113Z,13.60
2022-11-24T18:24:58.047Z,13.60
2022-11-24T18:27:29.058Z,13.50
2022-11-24T18:30:00.024Z,13.70
2022-11-24T18:32:32.324Z,13.60
2022-11-24T18:35:03.344Z,13.50
2022-11-24T18:37:36.694Z,13.40
2022-11-24T18:40:08.575Z,13.30
2022-11-24T18:42:39.468Z,14.80
2022-11-24T18:45:10.993Z,15.90
2022-11-24T18:47:42.005Z,15.10
2022-11-24T18:50:12.873Z,14.50
2022-11-24T18:52:44.036Z,15.20
2022-11-24T18:55:15.543Z,15.70
2022-11-24T18:57:46.399Z,15.30
2022-11-24T19:00:17.952Z,14.80
2022-11-24T19:02:53.160Z,14.20
2022-11-24T19:05:24.064Z,13.70
2022-11-24T19:07:56.101Z,13.50
2022-11-24T19:10:27.076Z,13.40
2022-11-24T19:12:57.932Z,13.30
2022-11-24T19:15:36.325Z,13.20
2022-11-24T19:18:07.265Z,13.30
2022-11-24T19:20:38.122Z,13.20
2022-11-24T19:23:09.000Z,13.10
2022-11-24T19:25:39.916Z,13.10
2022-11-24T19:28:12.654Z,13.20
2022-11-24T19:30:45.308Z,13.20
2022-11-24T19:33:16.241Z,13.40
2022-11-24T19:35:47.144Z,13.40
2022-11-24T19:38:18.046Z,13.20
2022-11-24T19:40:51.925Z,12.80
2022-11-24T19:43:22.805Z,12.90
2022-11-24T19:45:53.697Z,12.90
2022-11-24T19:48:24.642Z,15.00
2022-11-24T19:51:04.686Z,15.90
2022-11-24T19:53:36.024Z,16.40
2022-11-24T19:56:10.939Z,16.40
2022-11-24T19:58:42.165Z,15.40
2022-11-24T20:01:20.095Z,14.80
2022-11-24T20:03:55.147Z,14.20
2022-11-24T20:06:28.917Z,13.70
2022-11-24T20:09:01.098Z,13.40
2022-11-24T20:11:32.041Z,13.00
2022-11-24T20:14:03.540Z,12.80
2022-11-24T20:16:35.465Z,12.90
2022-11-24T20:19:12.417Z,12.90
2022-11-24T20:21:47.802Z,12.80
2022-11-24T20:24:22.312Z,12.70
2022-11-24T20:26:58.962Z,12.40
2022-11-24T20:29:32.196Z,12.60
2022-11-24T20:32:03.144Z,12.40
2022-11-24T20:34:34.374Z,12.50
2022-11-24T20:37:13.227Z,12.50
2022-11-24T20:39:44.109Z,12.50
2022-11-24T20:42:15.006Z,12.40
2022-11-24T20:44:45.946Z,12.90
2022-11-24T20:47:16.825Z,14.40
2022-11-24T20:49:47.663Z,15.30
2022-11-24T20:52:18.496Z,15.60
2022-11-24T20:54:49.393Z,14.70
2022-11-24T20:57:20.235Z,13.90
2022-11-24T20:59:52.383Z,13.30
2022-11-24T21:02:23.400Z,13.40
2022-11-24T21:04:54.400Z,13.10
2022-11-24T21:07:25.333Z,12.90
2022-11-24T21:09:56.419Z,12.70
2022-11-24T21:12:27.272Z,12.70
2022-11-24T21:14:58.205Z,12.40
2022-11-24T21:17:29.207Z,12.40
2022-11-24T21:20:01.311Z,12.30
2022-11-24T21:22:32.300Z,12.30
2022-11-24T21:25:03.263Z,11.90
2022-11-24T21:27:34.131Z,12.00
2022-11-24T21:30:05.950Z,12.00
2022-11-24T21:32:36.883Z,12.00
2022-11-24T21:35:08.123Z,12.00
2022-11-24T21:37:39.028Z,11.90
2022-11-24T21:40:10.660Z,12.30
2022-11-24T21:42:41.654Z,12.40
2022-11-24T21:45:12.629Z,12.30
2022-11-24T21:47:47.871Z,12.10
2022-11-24T21:50:18.738Z,12.30
2022-11-24T21:52:49.759Z,12.20
2022-11-24T21:55:20.675Z,12.10
2022-11-24T21:57:51.635Z,12.10
2022-11-24T22:00:22.688Z,12.20
2022-11-24T22:02:55.063Z,12.30
2022-11-24T22:05:26.105Z,12.20
2022-11-24T22:07:59.273Z,12.30
2022-11-24T22:10:32.268Z,12.00
2022-11-24T22:13:03.190Z,11.90
2022-11-24T22:15:34.076Z,12.00
2022-11-24T22:18:05.122Z,12.00
2022-11-24T22:20:36.525Z,12.10
2022-11-24T22:23:07.429Z,12.10
2022-11-24T22:25:38.365Z,12.00
2022-11-24T22:28:09.217Z,12.10
2022-11-24T22:30:40.144Z,12.10
2022-11-24T22:33:11.268Z,12.10
2022-11-24T22:35:42.149Z,11.90
2022-11-24T22:38:13.012Z,11.70
2022-11-24T22:40:44.154Z,11.70
2022-11-24T22:43:16.699Z,11.50
2022-11-24T22:45:51.044Z,11.30
2022-11-24T22:48:21.944Z,11.70
2022-11-24T22:50:52.790Z,11.40
2022-11-24T22:53:23.670Z,11.60
2022-11-24T22:55:54.562Z,11.40
2022-11-24T22:58:27.643Z,11.70
2022-11-24T23:01:07.565Z,11.60
2022-11-24T23:03:39.534Z,11.50
2022-11-24T23:06:21.727Z,11.60
2022-11-24T23:08:56.666Z,11.40
2022-11-24T23:11:51.930Z,11.50
2022-11-24T23:14:22.810Z,11.40
2022-11-24T23:16:54.611Z,11.30
2022-11-24T23:19:25.489Z,11.20
2022-11-24T23:21:56.327Z,11.10
2022-11-24T23:24:27.223Z,11.00
2022-11-24T23:26:58.076Z,10.80
2022-11-24T23:29:28.979Z,10.80
2022-11-24T23:31:59.891Z,11.00
2022-11-24T23:34:30.809Z,10.80
2022-11-24T23:37:01.688Z,10.80
2022-11-24T23:39:35.649Z,10.70
2022-11-24T23:42:06.642Z,10.80
2022-11-24T23:44:37.791Z,10.80
2022-11-24T23:47:08.909Z,10.90
2022-11-24T23:49:42.979Z,11.10
2022-11-24T23:52:13.954Z,11.20
2022-11-24T23:54:53.502Z,11.40
2022-11-24T23:57:24.560Z,11.30
2022-11-24T23:59:55.862Z,11.30
